createdAt,value
2019-03-18T00:00:53.783Z,98266.50
2019-03-18T00:03:23.298Z,98274.19
2019-03-18T00:05:53.035Z,98273.28
2019-03-18T00:08:22.550Z,98269.97
2019-03-18T00:10:52.067Z,98277.84
2019-03-18T00:13:21.551Z,98284.58
2019-03-18T00:15:51.116Z,98277.22
2019-03-18T00:18:20.627Z,98286.53
2019-03-18T00:20:50.240Z,98283.41
2019-03-18T00:23:19.747Z,98291.38
2019-03-18T00:25:49.282Z,98288.38
2019-03-18T00:28:18.833Z,98285.87
2019-03-18T00:30:48.477Z,98289.29
2019-03-18T00:33:18.087Z,98295.70
2019-03-18T00:35:47.591Z,98289.50
2019-03-18T00:38:17.196Z,98284.63
2019-03-18T00:40:46.803Z,98281.09
2019-03-18T00:43:16.298Z,98286.48
2019-03-18T00:45:45.953Z,98287.83
2019-03-18T00:48:15.555Z,98293.22
2019-03-18T00:50:45.335Z,98292.38
2019-03-18T00:53:14.815Z,98285.13
2019-03-18T00:55:44.342Z,98295.58
2019-03-18T00:58:13.980Z,98291.54
2019-03-18T01:00:43.537Z,98292.59
2019-03-18T01:03:13.225Z,98292.08
2019-03-18T01:05:42.995Z,98295.58
2019-03-18T01:08:12.695Z,98288.84
2019-03-18T01:10:42.327Z,98294.78
2019-03-18T01:13:11.928Z,98296.93
2019-03-18T01:15:41.629Z,98289.06
2019-03-18T01:18:11.177Z,98296.93
2019-03-18T01:20:40.671Z,98285.13
2019-03-18T01:23:10.222Z,98283.45
2019-03-18T01:25:39.833Z,98141.86
2019-03-18T01:28:09.562Z,98283.67
2019-03-18T01:30:39.045Z,98294.78
2019-03-18T01:33:08.708Z,98287.50
2019-03-18T01:35:39.924Z,98295.58
2019-03-18T01:38:09.540Z,98300.97
2019-03-18T01:40:39.093Z,98300.67
2019-03-18T01:43:08.596Z,98302.86
2019-03-18T01:45:40.996Z,98306.06
2019-03-18T01:48:09.454Z,98306.90
2019-03-18T01:50:39.048Z,98308.25
2019-03-18T01:53:08.555Z,98308.76
2019-03-18T01:55:38.964Z,98309.59
2019-03-18T01:58:08.523Z,98308.25
2019-03-18T02:00:38.041Z,98311.75
2019-03-18T02:03:07.655Z,98300.16
2019-03-18T02:05:37.204Z,98310.11
2019-03-18T02:08:06.757Z,98301.69
2019-03-18T02:10:36.258Z,98297.98
2019-03-18T02:13:05.916Z,98295.80
2019-03-18T02:15:35.477Z,98293.09
2019-03-18T02:18:05.023Z,98292.27
2019-03-18T02:20:34.674Z,98300.05
2019-03-18T02:23:04.191Z,98300.05
2019-03-18T02:25:33.738Z,98303.04
2019-03-18T02:28:03.245Z,98302.42
2019-03-18T02:30:32.825Z,98303.77
2019-03-18T02:33:02.361Z,98302.74
2019-03-18T02:35:31.931Z,98309.27
2019-03-18T02:38:01.436Z,98301.69
2019-03-18T02:40:30.938Z,98299.21
2019-03-18T02:43:00.542Z,98300.56
2019-03-18T02:45:30.079Z,98310.61
2019-03-18T02:47:59.605Z,98302.53
2019-03-18T02:50:29.153Z,98302.02
2019-03-18T02:52:58.685Z,98300.67
2019-03-18T02:55:28.310Z,98303.37
2019-03-18T02:57:57.896Z,98304.20
2019-03-18T03:00:27.406Z,98309.05
2019-03-18T03:02:56.944Z,98310.94
2019-03-18T03:05:26.525Z,98310.94
2019-03-18T03:07:56.050Z,98307.70
2019-03-18T03:10:25.587Z,98315.28
2019-03-18T03:12:55.800Z,98308.55
2019-03-18T03:15:25.375Z,98308.25
2019-03-18T03:18:01.220Z,98311.23
2019-03-18T03:20:30.800Z,98306.36
2019-03-18T03:23:01.313Z,98307.20
2019-03-18T03:25:30.930Z,98303.16
2019-03-18T03:28:00.491Z,98300.97
2019-03-18T03:30:30.210Z,98304.72
2019-03-18T03:32:59.769Z,98301.52
2019-03-18T03:35:29.353Z,98310.94
2019-03-18T03:37:59.027Z,98311.95
2019-03-18T03:40:28.538Z,98312.29
2019-03-18T03:42:58.243Z,98309.05
2019-03-18T03:45:27.769Z,98313.09
2019-03-18T03:47:57.319Z,98310.94
2019-03-18T03:50:26.857Z,98310.94
2019-03-18T03:52:56.330Z,98311.23
2019-03-18T03:55:25.859Z,98313.64
2019-03-18T03:57:55.402Z,98309.05
2019-03-18T04:00:24.983Z,98307.41
2019-03-18T04:02:54.606Z,98306.36
2019-03-18T04:05:24.256Z,98304.50
2019-03-18T04:07:53.923Z,98298.60
2019-03-18T04:10:23.444Z,98307.52
2019-03-18T04:12:52.931Z,98316.73
2019-03-18T04:15:22.512Z,98317.25
2019-03-18T04:17:51.994Z,98308.66
2019-03-18T04:20:21.536Z,98322.64
2019-03-18T04:22:51.103Z,98314.55
2019-03-18T04:25:20.662Z,98321.83
2019-03-18T04:27:50.185Z,98326.17
2019-03-18T04:30:19.782Z,98315.39
2019-03-18T04:32:49.289Z,98331.05
2019-03-18T04:35:18.874Z,98323.48
2019-03-18T04:37:48.399Z,98328.03
2019-03-18T04:40:17.881Z,98324.83
2019-03-18T04:42:47.547Z,98327.84
2019-03-18T04:45:17.080Z,98334.58
2019-03-18T04:47:47.546Z,98331.56
2019-03-18T04:50:17.032Z,98331.05
2019-03-18T04:52:46.640Z,98332.91
2019-03-18T04:55:26.726Z,98340.16
2019-03-18T04:57:56.293Z,98339.97
2019-03-18T05:00:25.762Z,98337.78
2019-03-18T05:02:55.329Z,98338.30
2019-03-18T05:05:24.988Z,98340.16
2019-03-18T05:07:54.521Z,98348.56
2019-03-18T05:10:24.003Z,98345.36
2019-03-18T05:12:53.552Z,98362.36
2019-03-18T05:15:23.093Z,98359.34
2019-03-18T05:17:52.621Z,98358.83
2019-03-18T05:20:22.153Z,98361.82
2019-03-18T05:22:51.661Z,98357.78
2019-03-18T05:25:21.183Z,98364.84
2019-03-18T05:27:50.711Z,98378.65
2019-03-18T05:30:20.239Z,98374.91
2019-03-18T05:32:49.850Z,98371.70
2019-03-18T05:35:19.334Z,98370.35
2019-03-18T05:37:48.931Z,98379.06
2019-03-18T05:40:18.511Z,98374.22
2019-03-18T05:42:48.062Z,98373.49
2019-03-18T05:45:17.687Z,98374.84
2019-03-18T05:47:47.255Z,98379.72
2019-03-18T05:50:16.739Z,98382.71
2019-03-18T05:52:46.358Z,98378.16
2019-03-18T05:55:16.069Z,98378.67
2019-03-18T05:57:45.610Z,98379.51
2019-03-18T06:00:17.145Z,98385.73
2019-03-18T06:02:47.300Z,98385.23
2019-03-18T06:05:17.175Z,98382.31
2019-03-18T06:07:46.646Z,98402.86
2019-03-18T06:10:16.186Z,98400.34
2019-03-18T06:12:45.713Z,98404.90
2019-03-18T06:15:15.196Z,98415.16
2019-03-18T06:17:52.092Z,98413.31
2019-03-18T06:20:15.948Z,98417.35
2019-03-18T06:22:45.425Z,98414.15
2019-03-18T06:25:14.976Z,98417.14
2019-03-18T06:27:44.472Z,98417.14
2019-03-18T06:30:14.071Z,98418.19
2019-03-18T06:32:43.630Z,98424.93
2019-03-18T06:35:13.210Z,98420.38
2019-03-18T06:37:43.195Z,98415.50
2019-03-18T06:40:12.854Z,98416.00
2019-03-18T06:42:42.340Z,98424.93
2019-03-18T06:45:12.938Z,98424.59
2019-03-18T06:47:42.493Z,98431.67
2019-03-18T06:50:12.272Z,98433.52
2019-03-18T06:52:41.722Z,98435.70
2019-03-18T06:55:11.203Z,98437.89
2019-03-18T06:57:40.748Z,98438.41
2019-03-18T07:00:11.120Z,98450.02
2019-03-18T07:02:40.666Z,98453.52
2019-03-18T07:05:10.316Z,98450.66
2019-03-18T07:07:39.844Z,98456.88
2019-03-18T07:10:09.971Z,98463.62
2019-03-18T07:12:40.334Z,98463.91
2019-03-18T07:15:10.117Z,98473.05
2019-03-18T07:17:39.635Z,98472.00
2019-03-18T07:20:10.234Z,98469.30
2019-03-18T07:22:39.861Z,98481.77
2019-03-18T07:25:09.720Z,98482.06
2019-03-18T07:27:39.187Z,98486.94
2019-03-18T07:30:11.488Z,98493.17
2019-03-18T07:32:40.968Z,98489.64
2019-03-18T07:35:10.854Z,98494.01
2019-03-18T07:37:40.384Z,98502.94
2019-03-18T07:40:11.368Z,98507.48
2019-03-18T07:42:41.035Z,98505.30
2019-03-18T07:45:11.472Z,98512.88
2019-03-18T07:47:41.051Z,98518.60
2019-03-18T07:50:10.701Z,98510.52
2019-03-18T07:52:40.307Z,98520.75
2019-03-18T07:55:09.934Z,98520.75
2019-03-18T07:57:39.511Z,98524.80
2019-03-18T08:00:09.781Z,98526.69
2019-03-18T08:02:39.304Z,98535.58
2019-03-18T08:05:09.529Z,98536.30
2019-03-18T08:07:39.089Z,98534.95
2019-03-18T08:10:08.681Z,98541.69
2019-03-18T08:12:38.133Z,98543.55
2019-03-18T08:15:07.676Z,98544.05
2019-03-18T08:17:37.195Z,98539.77
2019-03-18T08:20:06.744Z,98548.42
2019-03-18T08:22:36.267Z,98546.23
2019-03-18T08:25:05.902Z,98550.28
2019-03-18T08:27:35.397Z,98554.66
2019-03-18T08:30:05.395Z,98564.94
2019-03-18T08:32:34.891Z,98564.09
2019-03-18T08:35:04.381Z,98573.86
2019-03-18T08:37:33.907Z,98573.52
2019-03-18T08:40:03.430Z,98582.95
2019-03-18T08:42:32.961Z,98582.12
2019-03-18T08:45:02.533Z,98586.67
2019-03-18T08:47:32.066Z,98590.72
2019-03-18T08:50:01.613Z,98595.27
2019-03-18T08:52:35.209Z,98602.55
2019-03-18T08:55:04.895Z,98602.55
2019-03-18T08:57:36.736Z,98612.78
2019-03-18T09:00:07.674Z,98610.62
2019-03-18T09:02:37.308Z,98604.91
2019-03-18T09:05:07.399Z,98606.59
2019-03-18T09:07:36.961Z,98612.99
2019-03-18T09:10:06.846Z,98611.64
2019-03-18T09:12:36.341Z,98609.78
2019-03-18T09:15:06.604Z,98614.34
2019-03-18T09:17:38.407Z,98612.99
2019-03-18T09:20:08.822Z,98615.18
2019-03-18T09:22:38.346Z,98619.02
2019-03-18T09:25:07.965Z,98619.22
2019-03-18T09:27:38.700Z,98620.87
2019-03-18T09:30:09.770Z,98623.77
2019-03-18T09:32:39.360Z,98639.73
2019-03-18T09:35:08.960Z,98642.44
2019-03-18T09:37:38.508Z,98647.31
2019-03-18T09:40:08.621Z,98648.16
2019-03-18T09:42:38.110Z,98653.88
2019-03-18T09:45:07.983Z,98655.23
2019-03-18T09:47:37.623Z,98651.19
2019-03-18T09:50:07.352Z,98657.92
2019-03-18T09:52:36.979Z,98661.45
2019-03-18T09:55:06.691Z,98664.96
2019-03-18T09:57:36.381Z,98667.36
2019-03-18T10:00:06.182Z,98672.75
2019-03-18T10:02:35.799Z,98676.28
2019-03-18T10:05:05.933Z,98686.02
2019-03-18T10:07:35.808Z,98685.18
2019-03-18T10:10:07.105Z,98687.37
2019-03-18T10:12:36.660Z,98691.41
2019-03-18T10:15:07.409Z,98690.91
2019-03-18T10:17:36.942Z,98694.74
2019-03-18T10:20:06.857Z,98699.33
2019-03-18T10:22:36.449Z,98700.67
2019-03-18T10:25:06.191Z,98702.02
2019-03-18T10:27:37.756Z,98704.38
2019-03-18T10:30:07.235Z,98711.96
2019-03-18T10:32:36.871Z,98707.59
2019-03-18T10:35:06.853Z,98710.79
2019-03-18T10:37:36.363Z,98717.53
2019-03-18T10:40:06.647Z,98720.77
2019-03-18T10:42:37.029Z,98723.96
2019-03-18T10:45:07.789Z,98720.42
2019-03-18T10:47:37.314Z,98723.13
2019-03-18T10:50:07.818Z,98724.14
2019-03-18T10:52:37.442Z,98734.75
2019-03-18T10:55:08.226Z,98734.75
2019-03-18T10:57:37.958Z,98733.39
2019-03-18T11:00:08.469Z,98733.91
2019-03-18T11:02:38.038Z,98740.98
2019-03-18T11:05:08.336Z,98740.64
2019-03-18T11:07:38.131Z,98740.98
2019-03-18T11:10:08.358Z,98746.88
2019-03-18T11:12:38.012Z,98751.77
2019-03-18T11:15:09.535Z,98748.53
2019-03-18T11:17:39.205Z,98756.95
2019-03-18T11:20:10.120Z,98753.74
2019-03-18T11:22:39.688Z,98758.30
2019-03-18T11:25:09.456Z,98759.98
2019-03-18T11:27:39.044Z,98762.67
2019-03-18T11:30:09.231Z,98768.06
2019-03-18T11:32:38.850Z,98773.76
2019-03-18T11:35:08.683Z,98778.31
2019-03-18T11:37:38.258Z,98782.18
2019-03-18T11:40:08.830Z,98778.44
2019-03-18T11:42:38.425Z,98782.48
2019-03-18T11:45:08.784Z,98781.98
2019-03-18T11:47:38.277Z,98790.91
2019-03-18T11:50:11.560Z,98793.60
2019-03-18T11:52:39.251Z,98797.31
2019-03-18T11:55:10.841Z,98800.34
2019-03-18T11:57:40.432Z,98798.99
2019-03-18T12:00:12.382Z,98803.03
2019-03-18T12:02:42.043Z,98799.50
2019-03-18T12:05:13.761Z,98802.02
2019-03-18T12:07:43.520Z,98803.38
2019-03-18T12:10:15.263Z,98811.97
2019-03-18T12:12:44.860Z,98821.70
2019-03-18T12:15:14.820Z,98819.55
2019-03-18T12:17:44.340Z,98821.41
2019-03-18T12:20:23.581Z,98823.25
2019-03-18T12:22:45.195Z,98821.06
2019-03-18T12:25:15.319Z,98830.00
2019-03-18T12:27:44.980Z,98830.84
2019-03-18T12:30:16.957Z,98838.08
2019-03-18T12:32:46.428Z,98833.20
2019-03-18T12:35:16.047Z,98837.24
2019-03-18T12:37:45.698Z,98840.98
2019-03-18T12:40:15.538Z,98840.98
2019-03-18T12:42:45.570Z,98853.62
2019-03-18T12:45:15.403Z,98847.89
2019-03-18T12:47:45.243Z,98852.14
2019-03-18T12:50:16.105Z,98860.23
2019-03-18T12:52:45.622Z,98858.23
2019-03-18T12:55:15.539Z,98863.09
2019-03-18T12:57:45.090Z,98864.13
2019-03-18T13:00:17.496Z,98869.19
2019-03-18T13:02:47.063Z,98871.89
2019-03-18T13:05:16.775Z,98876.44
2019-03-18T13:07:46.276Z,98874.58
2019-03-18T13:10:16.157Z,98879.47
2019-03-18T13:12:45.713Z,98879.13
2019-03-18T13:15:15.982Z,98889.91
2019-03-18T13:17:45.505Z,98883.17
2019-03-18T13:20:15.339Z,98889.91
2019-03-18T13:22:45.004Z,98893.95
2019-03-18T13:25:14.684Z,98900.19
2019-03-18T13:27:44.353Z,98904.73
2019-03-18T13:30:15.661Z,98914.17
2019-03-18T13:32:45.254Z,98904.73
2019-03-18T13:35:15.695Z,98905.24
2019-03-18T13:37:45.197Z,98918.42
2019-03-18T13:40:15.016Z,98914.03
2019-03-18T13:42:44.571Z,98926.50
2019-03-18T13:45:15.428Z,98928.86
2019-03-18T13:47:45.057Z,98933.41
2019-03-18T13:50:16.077Z,98937.99
2019-03-18T13:52:45.642Z,98945.03
2019-03-18T13:55:15.275Z,98949.58
2019-03-18T13:57:44.882Z,98949.45
2019-03-18T14:00:15.081Z,98951.13
2019-03-18T14:02:44.557Z,98960.22
2019-03-18T14:05:14.224Z,98966.46
2019-03-18T14:07:44.011Z,98963.77
2019-03-18T14:10:14.529Z,98964.61
2019-03-18T14:12:44.253Z,98974.55
2019-03-18T14:15:15.156Z,98967.81
2019-03-18T14:17:44.694Z,98966.46
2019-03-18T14:20:15.331Z,98975.89
2019-03-18T14:22:45.426Z,98973.70
2019-03-18T14:25:15.050Z,98978.78
2019-03-18T14:27:47.736Z,98989.57
2019-03-18T14:30:17.555Z,98992.27
2019-03-18T14:32:47.168Z,98999.00
2019-03-18T14:35:16.811Z,99002.20
2019-03-18T14:37:46.420Z,99005.91
2019-03-18T14:40:16.117Z,99016.19
2019-03-18T14:42:45.636Z,99026.97
2019-03-18T14:45:17.193Z,99027.47
2019-03-18T14:47:47.527Z,99031.20
2019-03-18T14:50:18.115Z,99039.80
2019-03-18T14:52:47.660Z,99045.19
2019-03-18T14:55:17.199Z,99058.33
2019-03-18T14:57:48.339Z,99067.76
2019-03-18T15:00:19.722Z,99075.20
2019-03-18T15:02:49.300Z,99074.35
2019-03-18T15:05:19.030Z,99085.33
2019-03-18T15:07:48.605Z,99096.11
2019-03-18T15:10:18.215Z,99106.23
2019-03-18T15:12:47.796Z,99110.44
2019-03-18T15:15:17.759Z,99115.69
2019-03-18T15:17:47.589Z,99126.81
2019-03-18T15:20:17.270Z,99131.20
2019-03-18T15:22:46.850Z,99135.75
2019-03-18T15:25:18.912Z,99145.38
2019-03-18T15:27:48.785Z,99154.47
2019-03-18T15:30:19.717Z,99171.33
2019-03-18T15:32:49.710Z,99174.53
2019-03-18T15:35:19.412Z,99173.38
2019-03-18T15:37:48.887Z,99186.31
2019-03-18T15:40:18.680Z,99192.73
2019-03-18T15:42:48.244Z,99206.21
2019-03-18T15:45:17.992Z,99215.30
2019-03-18T15:47:47.577Z,99219.84
2019-03-18T15:50:17.848Z,99223.07
2019-03-18T15:52:47.362Z,99228.96
2019-03-18T15:55:17.017Z,99239.73
2019-03-18T15:57:46.862Z,99248.33
2019-03-18T16:00:17.802Z,99253.37
2019-03-18T16:02:47.442Z,99265.19
2019-03-18T16:05:17.033Z,99274.61
2019-03-18T16:07:46.563Z,99279.16
2019-03-18T16:10:16.381Z,99278.31
2019-03-18T16:12:45.996Z,99286.08
2019-03-18T16:15:15.768Z,99287.73
2019-03-18T16:17:45.424Z,99297.36
2019-03-18T16:20:15.158Z,99311.98
2019-03-18T16:22:44.634Z,99315.53
2019-03-18T16:25:14.363Z,99328.00
2019-03-18T16:27:44.046Z,99339.59
2019-03-18T16:30:14.766Z,99350.91
2019-03-18T16:32:44.250Z,99351.91
2019-03-18T16:35:16.011Z,99357.98
2019-03-18T16:37:45.385Z,99364.22
2019-03-18T16:40:15.376Z,99370.27
2019-03-18T16:42:44.916Z,99380.34
2019-03-18T16:45:15.074Z,99390.46
2019-03-18T16:47:44.815Z,99406.78
2019-03-18T16:50:15.221Z,99408.81
2019-03-18T16:52:44.845Z,99417.08
2019-03-18T16:55:14.527Z,99419.42
2019-03-18T16:57:44.271Z,99435.09
2019-03-18T17:00:18.207Z,99441.48
2019-03-18T17:02:47.824Z,99451.75
2019-03-18T17:05:17.440Z,99464.38
2019-03-18T17:07:47.003Z,99468.77
2019-03-18T17:10:16.435Z,99467.07
2019-03-18T17:12:46.090Z,99478.69
2019-03-18T17:15:15.705Z,99475.50
2019-03-18T17:17:45.248Z,99481.39
2019-03-18T17:20:14.829Z,99490.67
2019-03-18T17:22:49.281Z,99494.36
2019-03-18T17:25:17.161Z,99496.38
2019-03-18T17:27:46.680Z,99494.70
2019-03-18T17:30:17.868Z,99506.30
2019-03-18T17:32:47.585Z,99513.56
2019-03-18T17:35:17.215Z,99517.61
2019-03-18T17:37:46.822Z,99527.03
2019-03-18T17:40:16.581Z,99535.12
2019-03-18T17:42:46.198Z,99544.02
2019-03-18T17:45:15.935Z,99544.55
2019-03-18T17:47:46.516Z,99551.59
2019-03-18T17:50:17.811Z,99560.18
2019-03-18T17:53:01.870Z,99568.27
2019-03-18T17:55:21.279Z,99574.67
2019-03-18T17:57:50.936Z,99576.91
2019-03-18T18:00:27.198Z,99577.75
2019-03-18T18:02:56.723Z,99581.44
2019-03-18T18:05:27.869Z,99598.61
2019-03-18T18:07:57.401Z,99601.63
2019-03-18T18:10:26.979Z,99598.77
2019-03-18T18:12:56.948Z,99602.83
2019-03-18T18:15:26.605Z,99610.58
2019-03-18T18:17:56.256Z,99608.86
2019-03-18T18:20:26.171Z,99612.41
2019-03-18T18:22:55.802Z,99622.69
2019-03-18T18:25:25.415Z,99624.70
2019-03-18T18:27:55.021Z,99633.49
2019-03-18T18:30:24.515Z,99638.02
2019-03-18T18:32:54.036Z,99645.27
2019-03-18T18:35:24.381Z,99648.45
2019-03-18T18:37:54.056Z,99656.39
2019-03-18T18:40:23.744Z,99665.14
2019-03-18T18:42:53.395Z,99666.49
2019-03-18T18:45:23.040Z,99672.23
2019-03-18T18:47:52.802Z,99679.30
2019-03-18T18:50:22.368Z,99681.49
2019-03-18T18:52:52.096Z,99687.23
2019-03-18T18:55:21.773Z,99688.40
2019-03-18T18:57:51.333Z,99701.08
2019-03-18T19:00:21.377Z,99708.67
2019-03-18T19:02:51.038Z,99714.05
2019-03-18T19:05:20.985Z,99717.58
2019-03-18T19:07:50.532Z,99718.09
2019-03-18T19:10:25.602Z,99717.76
2019-03-18T19:12:55.187Z,99726.68
2019-03-18T19:15:24.863Z,99732.73
2019-03-18T19:17:55.184Z,99732.09
2019-03-18T19:20:24.832Z,99743.20
2019-03-18T19:22:54.691Z,99752.49
2019-03-18T19:25:24.627Z,99757.70
2019-03-18T19:27:54.500Z,99762.25
2019-03-18T19:30:24.076Z,99767.67
2019-03-18T19:32:53.664Z,99768.17
2019-03-18T19:35:23.259Z,99760.26
2019-03-18T19:37:53.012Z,99766.31
2019-03-18T19:40:23.584Z,99769.87
2019-03-18T19:42:53.257Z,99779.80
2019-03-18T19:45:23.131Z,99780.66
2019-03-18T19:47:53.635Z,99783.70
2019-03-18T19:50:23.620Z,99791.95
2019-03-18T19:52:53.369Z,99786.06
2019-03-18T19:55:23.028Z,99796.00
2019-03-18T19:57:52.737Z,99802.08
2019-03-18T20:00:22.674Z,99806.12
2019-03-18T20:02:52.338Z,99818.27
2019-03-18T20:05:22.081Z,99819.44
2019-03-18T20:07:53.059Z,99819.25
2019-03-18T20:10:22.894Z,99824.50
2019-03-18T20:12:52.749Z,99823.47
2019-03-18T20:15:22.552Z,99827.72
2019-03-18T20:17:52.326Z,99823.48
2019-03-18T20:20:22.477Z,99821.95
2019-03-18T20:22:52.717Z,99830.91
2019-03-18T20:25:22.337Z,99837.50
2019-03-18T20:27:52.001Z,99832.09
2019-03-18T20:30:21.700Z,99844.56
2019-03-18T20:32:51.352Z,99842.72
2019-03-18T20:35:20.989Z,99848.11
2019-03-18T20:37:52.051Z,99851.81
2019-03-18T20:40:22.152Z,99860.77
2019-03-18T20:42:51.728Z,99867.02
2019-03-18T20:45:21.491Z,99864.63
2019-03-18T20:47:51.024Z,99873.77
2019-03-18T20:50:20.810Z,99874.27
2019-03-18T20:52:50.398Z,99881.17
2019-03-18T20:55:20.145Z,99888.60
2019-03-18T20:57:49.670Z,99898.03
2019-03-18T21:00:19.749Z,99900.91
2019-03-18T21:02:49.241Z,99900.38
2019-03-18T21:05:18.921Z,99917.58
2019-03-18T21:07:48.532Z,99919.42
2019-03-18T21:10:18.117Z,99927.84
2019-03-18T21:12:47.758Z,99927.78
2019-03-18T21:15:17.557Z,99938.58
2019-03-18T21:17:47.089Z,99939.92
2019-03-18T21:20:17.011Z,99948.02
2019-03-18T21:22:46.533Z,99950.89
2019-03-18T21:25:16.237Z,99951.21
2019-03-18T21:27:45.787Z,99954.05
2019-03-18T21:30:15.463Z,99966.37
2019-03-18T21:32:45.115Z,99971.58
2019-03-18T21:35:14.783Z,99977.13
2019-03-18T21:37:44.293Z,99978.65
2019-03-18T21:40:14.285Z,99983.19
2019-03-18T21:42:44.006Z,99989.08
2019-03-18T21:45:15.564Z,99992.80
2019-03-18T21:47:45.281Z,100008.48
2019-03-18T21:50:15.327Z,100002.91
2019-03-18T21:52:44.940Z,100008.30
2019-03-18T21:55:15.668Z,100006.96
2019-03-18T21:57:45.300Z,100012.36
2019-03-18T22:00:16.128Z,100015.05
2019-03-18T22:02:45.900Z,100021.12
2019-03-18T22:05:15.524Z,100023.81
2019-03-18T22:07:45.263Z,100022.47
2019-03-18T22:10:14.929Z,100033.08
2019-03-18T22:12:44.428Z,100037.98
2019-03-18T22:15:14.073Z,100051.81
2019-03-18T22:17:43.568Z,100052.14
2019-03-18T22:20:14.221Z,100055.86
2019-03-18T22:22:43.853Z,100059.05
2019-03-18T22:25:13.605Z,100064.09
2019-03-18T22:27:43.239Z,100060.22
2019-03-18T22:30:13.291Z,100076.72
2019-03-18T22:32:42.904Z,100082.65
2019-03-18T22:35:12.895Z,100087.19
2019-03-18T22:37:42.424Z,100087.33
2019-03-18T22:40:12.176Z,100096.62
2019-03-18T22:42:41.692Z,100107.06
2019-03-18T22:45:11.261Z,100099.99
2019-03-18T22:47:41.066Z,100097.63
2019-03-18T22:50:11.173Z,100099.99
2019-03-18T22:52:40.869Z,100096.94
2019-03-18T22:55:10.481Z,100099.99
2019-03-18T22:57:40.460Z,100112.13
2019-03-18T23:00:22.408Z,100110.42
2019-03-18T23:02:53.987Z,100115.81
2019-03-18T23:05:23.631Z,100117.84
2019-03-18T23:07:53.183Z,100125.92
2019-03-18T23:10:22.672Z,100122.73
2019-03-18T23:12:52.348Z,100135.69
2019-03-18T23:15:21.846Z,100138.91
2019-03-18T23:17:51.614Z,100144.31
2019-03-18T23:20:21.131Z,100147.83
2019-03-18T23:22:50.775Z,100151.87
2019-03-18T23:25:20.485Z,100156.27
2019-03-18T23:27:50.130Z,100152.72
2019-03-18T23:30:19.787Z,100164.36
2019-03-18T23:32:50.052Z,100163.86
2019-03-18T23:35:19.566Z,100174.16
2019-03-18T23:37:49.051Z,100176.50
2019-03-18T23:40:18.655Z,100180.55
2019-03-18T23:42:48.186Z,100188.98
2019-03-18T23:45:17.680Z,100186.42
2019-03-18T23:47:47.184Z,100185.94
2019-03-18T23:50:16.845Z,100194.02
2019-03-18T23:52:46.389Z,100198.56
2019-03-18T23:55:19.608Z,100194.69
2019-03-18T23:57:47.936Z,100197.03
